createdAt,value
2018-05-13T00:00:00.291Z,76.20
2018-05-13T00:02:27.708Z,76.42
2018-05-13T00:04:55.120Z,76.63
2018-05-13T00:07:22.564Z,77.45
2018-05-13T00:09:49.984Z,77.67
2018-05-13T00:12:17.403Z,77.21
2018-05-13T00:14:44.828Z,76.98
2018-05-13T00:17:12.247Z,76.69
2018-05-13T00:19:39.677Z,76.76
2018-05-13T00:22:07.105Z,77.69
2018-05-13T00:24:34.533Z,77.83
2018-05-13T00:27:01.956Z,78.67
2018-05-13T00:29:29.376Z,77.84
2018-05-13T00:31:57.104Z,77.76
2018-05-13T00:34:24.513Z,77.42
2018-05-13T00:36:51.939Z,77.15
2018-05-13T00:39:19.386Z,77.15
2018-05-13T00:41:46.801Z,77.20
2018-05-13T00:44:14.232Z,77.44
2018-05-13T00:46:41.662Z,77.96
2018-05-13T00:49:09.097Z,77.69
2018-05-13T00:51:36.745Z,77.78
2018-05-13T00:54:16.044Z,77.43
2018-05-13T00:56:43.786Z,77.47
2018-05-13T00:59:11.210Z,78.00
2018-05-13T01:01:38.697Z,77.74
2018-05-13T01:04:06.396Z,77.44
2018-05-13T01:06:34.728Z,77.66
2018-05-13T01:09:02.145Z,78.13
2018-05-13T01:11:29.584Z,77.89
2018-05-13T01:13:57.004Z,77.76
2018-05-13T01:16:24.456Z,77.57
2018-05-13T01:18:51.866Z,78.00
2018-05-13T01:21:19.284Z,77.96
2018-05-13T01:23:46.732Z,77.52
2018-05-13T01:26:14.152Z,77.53
2018-05-13T01:28:41.926Z,77.53
2018-05-13T01:31:09.331Z,77.80
2018-05-13T01:33:36.748Z,77.74
2018-05-13T01:36:04.180Z,77.50
2018-05-13T01:38:31.594Z,77.69
2018-05-13T01:40:59.026Z,78.05
2018-05-13T01:43:26.460Z,79.26
2018-05-13T01:45:53.885Z,78.89
2018-05-13T01:48:21.332Z,79.70
2018-05-13T01:50:48.798Z,79.72
2018-05-13T01:53:16.172Z,79.71
2018-05-13T01:55:43.604Z,79.35
2018-05-13T01:58:11.027Z,79.23
2018-05-13T02:00:38.468Z,78.84
2018-05-13T02:03:05.883Z,78.82
2018-05-13T02:05:33.312Z,78.99
2018-05-13T02:08:00.764Z,80.57
2018-05-13T02:10:28.192Z,79.73
2018-05-13T02:12:55.600Z,79.92
2018-05-13T02:15:23.021Z,79.81
2018-05-13T02:17:50.801Z,79.59
2018-05-13T02:20:18.222Z,79.18
2018-05-13T02:22:45.640Z,79.04
2018-05-13T02:25:13.072Z,79.08
2018-05-13T02:27:40.494Z,78.90
2018-05-13T02:30:08.079Z,79.42
2018-05-13T02:32:35.489Z,79.81
2018-05-13T02:35:02.904Z,80.03
2018-05-13T02:37:30.349Z,79.56
2018-05-13T02:39:57.757Z,79.59
2018-05-13T02:42:25.176Z,79.17
2018-05-13T02:44:52.606Z,80.84
2018-05-13T02:47:20.050Z,81.27
2018-05-13T02:49:47.476Z,80.36
2018-05-13T02:52:14.900Z,79.89
2018-05-13T02:54:42.316Z,79.61
2018-05-13T02:57:09.756Z,79.62
2018-05-13T02:59:37.164Z,79.89
2018-05-13T03:02:04.594Z,80.39
2018-05-13T03:04:32.004Z,80.43
2018-05-13T03:06:59.432Z,80.23
2018-05-13T03:09:27.252Z,79.82
2018-05-13T03:11:54.662Z,79.58
2018-05-13T03:14:22.076Z,79.34
2018-05-13T03:16:49.504Z,80.71
2018-05-13T03:19:16.916Z,80.35
2018-05-13T03:21:44.710Z,79.90
2018-05-13T03:24:12.129Z,79.55
2018-05-13T03:26:39.544Z,79.61
2018-05-13T03:29:06.980Z,79.72
2018-05-13T03:31:34.399Z,79.68
2018-05-13T03:34:01.841Z,79.54
2018-05-13T03:36:29.262Z,79.40
2018-05-13T03:38:56.995Z,79.37
2018-05-13T03:41:24.437Z,79.28
2018-05-13T03:43:51.848Z,79.50
2018-05-13T03:46:19.280Z,79.34
2018-05-13T03:48:46.705Z,79.23
2018-05-13T03:51:14.119Z,79.11
2018-05-13T03:53:41.559Z,79.36
2018-05-13T03:56:08.969Z,79.13
2018-05-13T03:58:36.399Z,78.70
2018-05-13T04:01:03.824Z,78.60
2018-05-13T04:03:31.586Z,78.51
2018-05-13T04:05:58.996Z,78.81
2018-05-13T04:08:47.033Z,78.77
2018-05-13T04:11:26.137Z,78.23
2018-05-13T04:14:05.720Z,78.20
2018-05-13T04:16:33.811Z,77.78
2018-05-13T04:19:01.236Z,77.28
2018-05-13T04:21:28.685Z,77.03
2018-05-13T04:23:56.115Z,76.80
2018-05-13T04:26:23.540Z,76.56
2018-05-13T04:28:50.970Z,76.31
2018-05-13T04:31:18.392Z,76.35
2018-05-13T04:33:45.817Z,75.82
2018-05-13T04:36:13.242Z,75.09
2018-05-13T04:38:40.652Z,74.71
2018-05-13T04:41:08.392Z,73.69
2018-05-13T04:43:35.808Z,72.99
2018-05-13T04:46:03.229Z,71.60
2018-05-13T04:48:30.662Z,70.01
2018-05-13T04:50:58.092Z,68.02
2018-05-13T04:53:25.504Z,67.87
2018-05-13T04:55:52.916Z,66.52
2018-05-13T04:58:20.348Z,66.23
2018-05-13T05:00:47.772Z,64.87
2018-05-13T05:03:15.192Z,63.16
2018-05-13T05:05:42.627Z,62.04
2018-05-13T05:08:10.041Z,61.00
2018-05-13T05:10:37.475Z,59.40
2018-05-13T05:13:04.899Z,60.53
2018-05-13T05:15:32.315Z,59.77
2018-05-13T05:17:59.898Z,59.20
2018-05-13T05:20:27.323Z,58.80
2018-05-13T05:22:54.765Z,56.25
2018-05-13T05:25:22.172Z,57.10
2018-05-13T05:27:49.783Z,56.36
2018-05-13T05:30:17.104Z,55.91
2018-05-13T05:32:44.853Z,56.39
2018-05-13T05:35:12.256Z,53.33
2018-05-13T05:37:39.673Z,54.69
2018-05-13T05:40:07.397Z,53.63
2018-05-13T05:42:34.808Z,52.45
2018-05-13T05:45:02.207Z,50.83
2018-05-13T05:47:29.712Z,50.66
2018-05-13T05:49:57.114Z,51.06
2018-05-13T05:52:24.569Z,50.03
2018-05-13T05:54:52.272Z,50.61
2018-05-13T05:57:19.692Z,51.68
2018-05-13T05:59:47.094Z,52.06
2018-05-13T06:02:14.523Z,53.23
2018-05-13T06:04:41.927Z,53.53
2018-05-13T06:07:09.344Z,53.87
2018-05-13T06:09:36.769Z,53.94
2018-05-13T06:12:04.173Z,52.88
2018-05-13T06:14:31.595Z,51.95
2018-05-13T06:16:59.357Z,50.70
2018-05-13T06:19:26.763Z,48.33
2018-05-13T06:21:54.178Z,47.98
2018-05-13T06:24:21.592Z,47.50
2018-05-13T06:26:49.000Z,48.01
2018-05-13T06:29:16.610Z,46.58
2018-05-13T06:31:44.285Z,43.06
2018-05-13T06:34:11.684Z,44.39
2018-05-13T06:36:39.149Z,43.71
2018-05-13T06:39:06.612Z,44.87
2018-05-13T06:41:34.031Z,45.58
2018-05-13T06:44:01.735Z,44.79
2018-05-13T06:46:29.203Z,44.72
2018-05-13T06:48:56.628Z,45.06
2018-05-13T06:51:24.160Z,44.72
2018-05-13T06:53:51.460Z,45.40
2018-05-13T06:56:18.886Z,43.78
2018-05-13T06:58:46.296Z,43.23
2018-05-13T07:01:13.751Z,43.82
2018-05-13T07:03:41.161Z,44.63
2018-05-13T07:06:08.572Z,44.42
2018-05-13T07:08:36.231Z,44.51
2018-05-13T07:11:03.645Z,43.72
2018-05-13T07:13:31.039Z,44.37
2018-05-13T07:15:58.635Z,43.91
2018-05-13T07:18:26.046Z,42.81
2018-05-13T07:20:53.447Z,41.12
2018-05-13T07:23:20.872Z,40.58
2018-05-13T07:25:48.286Z,42.01
2018-05-13T07:28:15.700Z,41.58
2018-05-13T07:30:43.119Z,41.70
2018-05-13T07:33:10.529Z,42.15
2018-05-13T07:35:38.294Z,40.74
2018-05-13T07:38:05.699Z,41.10
2018-05-13T07:40:33.104Z,41.57
2018-05-13T07:43:00.519Z,40.20
2018-05-13T07:45:27.933Z,40.53
2018-05-13T07:47:55.335Z,40.50
2018-05-13T07:50:23.115Z,40.39
2018-05-13T07:52:50.512Z,38.74
2018-05-13T07:55:17.922Z,39.35
2018-05-13T07:57:45.337Z,38.30
2018-05-13T08:00:12.744Z,38.39
2018-05-13T08:02:40.165Z,37.61
2018-05-13T08:05:07.893Z,37.72
2018-05-13T08:07:35.301Z,37.22
2018-05-13T08:10:02.707Z,37.89
2018-05-13T08:12:30.445Z,37.56
2018-05-13T08:14:57.959Z,38.29
2018-05-13T08:17:25.367Z,38.93
2018-05-13T08:19:52.806Z,39.88
2018-05-13T08:22:20.263Z,40.54
2018-05-13T08:24:47.668Z,40.64
2018-05-13T08:27:15.396Z,40.07
2018-05-13T08:29:42.803Z,39.19
2018-05-13T08:32:10.252Z,39.76
2018-05-13T08:34:37.877Z,39.37
2018-05-13T08:37:05.280Z,39.62
2018-05-13T08:39:35.160Z,39.56
2018-05-13T08:42:02.671Z,39.53
2018-05-13T08:44:30.334Z,39.17
2018-05-13T08:46:57.788Z,38.67
2018-05-13T08:49:25.382Z,39.11
2018-05-13T08:51:53.336Z,39.58
2018-05-13T08:54:21.335Z,40.19
2018-05-13T08:56:49.067Z,40.32
2018-05-13T08:59:16.476Z,40.21
2018-05-13T09:01:44.008Z,40.36
2018-05-13T09:04:11.525Z,40.16
2018-05-13T09:06:39.325Z,40.05
2018-05-13T09:09:06.733Z,40.31
2018-05-13T09:11:34.387Z,38.82
2018-05-13T09:14:02.377Z,38.96
2018-05-13T09:16:29.915Z,38.30
2018-05-13T09:18:57.462Z,39.22
2018-05-13T09:21:24.884Z,38.75
2018-05-13T09:23:52.552Z,38.20
2018-05-13T09:26:20.013Z,38.18
2018-05-13T09:28:47.540Z,36.80
2018-05-13T09:31:15.827Z,36.77
2018-05-13T09:33:43.351Z,36.57
2018-05-13T09:36:10.776Z,37.00
2018-05-13T09:38:38.395Z,37.00
2018-05-13T09:41:05.918Z,36.31
2018-05-13T09:43:33.477Z,36.50
2018-05-13T09:46:01.320Z,36.49
2018-05-13T09:48:28.860Z,36.36
2018-05-13T09:50:56.311Z,36.58
2018-05-13T09:53:23.996Z,37.15
2018-05-13T09:55:51.642Z,37.76
2018-05-13T09:58:19.137Z,38.99
2018-05-13T10:00:46.699Z,39.38
2018-05-13T10:03:14.191Z,39.44
2018-05-13T10:05:41.664Z,40.80
2018-05-13T10:08:09.115Z,41.58
2018-05-13T10:10:36.572Z,41.40
2018-05-13T10:13:04.091Z,42.28
2018-05-13T10:15:31.543Z,42.16
2018-05-13T10:17:59.431Z,42.99
2018-05-13T10:20:26.891Z,43.53
2018-05-13T10:22:54.410Z,42.99
2018-05-13T10:25:21.862Z,43.13
2018-05-13T10:27:49.340Z,42.52
2018-05-13T10:30:16.832Z,42.50
2018-05-13T10:32:44.308Z,42.83
2018-05-13T10:35:11.845Z,43.52
2018-05-13T10:37:40.713Z,43.37
2018-05-13T10:40:08.273Z,43.71
2018-05-13T10:42:35.821Z,43.98
2018-05-13T10:45:03.928Z,43.88
2018-05-13T10:47:31.348Z,43.83
2018-05-13T10:49:58.848Z,43.16
2018-05-13T10:52:26.519Z,43.21
2018-05-13T10:54:54.020Z,43.71
2018-05-13T10:57:21.909Z,42.59
2018-05-13T10:59:49.336Z,42.80
2018-05-13T11:02:17.129Z,43.41
2018-05-13T11:04:44.742Z,42.95
2018-05-13T11:07:12.170Z,42.74
2018-05-13T11:09:40.016Z,43.09
2018-05-13T11:12:07.484Z,42.98
2018-05-13T11:14:35.016Z,42.49
2018-05-13T11:17:02.481Z,42.79
2018-05-13T11:19:30.031Z,42.53
2018-05-13T11:21:57.456Z,42.35
2018-05-13T11:24:25.169Z,42.31
2018-05-13T11:26:52.815Z,42.43
2018-05-13T11:29:20.424Z,43.66
2018-05-13T11:31:48.088Z,45.14
2018-05-13T11:34:15.984Z,45.48
2018-05-13T11:36:44.743Z,43.11
2018-05-13T11:39:12.309Z,42.96
2018-05-13T11:41:39.891Z,42.86
2018-05-13T11:44:07.353Z,42.06
2018-05-13T11:46:35.177Z,41.46
2018-05-13T11:49:02.635Z,40.59
2018-05-13T11:51:30.441Z,40.45
2018-05-13T11:53:58.352Z,42.63
2018-05-13T11:56:25.866Z,42.79
2018-05-13T11:58:53.670Z,43.30
2018-05-13T12:01:21.224Z,43.20
2018-05-13T12:03:48.696Z,43.15
2018-05-13T12:06:16.118Z,43.41
2018-05-13T12:08:43.553Z,43.10
2018-05-13T12:11:11.551Z,42.83
2018-05-13T12:13:38.955Z,42.11
2018-05-13T12:16:06.618Z,42.45
2018-05-13T12:18:34.139Z,42.88
2018-05-13T12:21:01.545Z,42.47
2018-05-13T12:23:28.967Z,42.52
2018-05-13T12:25:56.423Z,42.49
2018-05-13T12:28:23.880Z,43.00
2018-05-13T12:30:51.537Z,43.73
2018-05-13T12:33:19.258Z,43.45
2018-05-13T12:35:46.655Z,43.95
2018-05-13T12:38:14.088Z,44.26
2018-05-13T12:40:41.512Z,44.42
2018-05-13T12:43:09.045Z,44.16
2018-05-13T12:45:36.449Z,44.31
2018-05-13T12:48:03.972Z,44.03
2018-05-13T12:50:31.407Z,44.37
2018-05-13T12:52:58.843Z,43.50
2018-05-13T12:55:26.261Z,43.94
2018-05-13T12:57:56.837Z,43.35
2018-05-13T13:00:24.288Z,43.77
2018-05-13T13:02:51.777Z,43.41
2018-05-13T13:05:19.220Z,43.01
2018-05-13T13:07:46.682Z,43.33
2018-05-13T13:10:14.068Z,44.05
2018-05-13T13:12:41.484Z,44.00
2018-05-13T13:15:09.140Z,43.83
2018-05-13T13:17:37.460Z,41.93
2018-05-13T13:20:04.975Z,42.29
2018-05-13T13:22:32.290Z,42.32
2018-05-13T13:24:59.715Z,42.22
2018-05-13T13:27:27.120Z,43.15
2018-05-13T13:29:54.591Z,43.97
2018-05-13T13:32:23.036Z,43.93
2018-05-13T13:34:50.435Z,43.78
2018-05-13T13:37:18.318Z,43.73
2018-05-13T13:39:45.780Z,43.64
2018-05-13T13:42:13.457Z,43.48
2018-05-13T13:44:40.959Z,43.62
2018-05-13T13:47:08.507Z,43.73
2018-05-13T13:49:35.918Z,43.97
2018-05-13T13:52:03.412Z,44.05
2018-05-13T13:54:31.969Z,44.08
2018-05-13T13:56:59.375Z,44.82
2018-05-13T13:59:26.874Z,46.61
2018-05-13T14:01:54.375Z,47.94
2018-05-13T14:04:22.023Z,49.68
2018-05-13T14:06:49.445Z,50.02
2018-05-13T14:09:16.946Z,51.31
2018-05-13T14:11:44.493Z,52.37
2018-05-13T14:14:11.928Z,53.57
2018-05-13T14:16:39.442Z,54.94
2018-05-13T14:19:06.844Z,55.86
2018-05-13T14:21:34.332Z,56.57
2018-05-13T14:24:01.944Z,61.68
2018-05-13T14:26:29.475Z,64.82
2018-05-13T14:28:56.944Z,67.32
2018-05-13T14:31:24.357Z,67.80
2018-05-13T14:33:51.835Z,68.12
2018-05-13T14:36:19.351Z,68.81
2018-05-13T14:38:46.856Z,70.00
2018-05-13T14:41:14.350Z,71.66
2018-05-13T14:43:41.835Z,71.67
2018-05-13T14:46:09.303Z,71.87
2018-05-13T14:48:36.708Z,72.67
2018-05-13T14:51:04.436Z,73.33
2018-05-13T14:53:33.644Z,74.63
2018-05-13T14:56:01.092Z,73.93
2018-05-13T14:58:28.753Z,73.81
2018-05-13T15:00:56.260Z,73.97
2018-05-13T15:03:23.663Z,73.89
2018-05-13T15:05:51.864Z,73.98
2018-05-13T15:08:19.915Z,74.18
2018-05-13T15:10:47.678Z,74.18
2018-05-13T15:13:15.092Z,74.83
2018-05-13T15:15:42.564Z,74.68
2018-05-13T15:18:10.170Z,74.45
2018-05-13T15:20:39.378Z,72.92
2018-05-13T15:23:06.829Z,72.83
2018-05-13T15:25:34.284Z,72.76
2018-05-13T15:28:01.697Z,73.93
2018-05-13T15:30:29.372Z,74.64
2018-05-13T15:32:56.775Z,74.78
2018-05-13T15:35:24.347Z,74.85
2018-05-13T15:37:51.793Z,73.80
2018-05-13T15:40:19.331Z,73.27
2018-05-13T15:42:46.960Z,73.53
2018-05-13T15:45:14.491Z,74.35
2018-05-13T15:47:42.072Z,73.79
2018-05-13T15:50:09.561Z,73.66
2018-05-13T15:52:37.253Z,73.84
2018-05-13T15:55:04.846Z,74.92
2018-05-13T15:57:32.257Z,75.20
2018-05-13T15:59:59.758Z,75.44
2018-05-13T16:02:27.171Z,75.81
2018-05-13T16:04:54.609Z,76.02
2018-05-13T16:07:22.044Z,76.31
2018-05-13T16:09:49.451Z,77.27
2018-05-13T16:12:16.974Z,77.68
2018-05-13T16:14:44.283Z,78.64
2018-05-13T16:17:11.994Z,79.17
2018-05-13T16:19:39.477Z,79.29
2018-05-13T16:22:06.948Z,81.16
2018-05-13T16:24:34.395Z,82.58
2018-05-13T16:27:01.792Z,83.24
2018-05-13T16:29:29.220Z,83.84
2018-05-13T16:31:56.619Z,86.07
2018-05-13T16:34:24.040Z,87.22
2018-05-13T16:36:51.443Z,87.62
2018-05-13T16:39:18.847Z,87.45
2018-05-13T16:41:46.475Z,88.03
2018-05-13T16:44:13.883Z,87.94
2018-05-13T16:46:41.288Z,87.68
2018-05-13T16:49:08.989Z,87.77
2018-05-13T16:51:36.409Z,87.17
2018-05-13T16:54:03.815Z,86.98
2018-05-13T16:56:31.235Z,86.37
2018-05-13T16:58:58.698Z,86.28
2018-05-13T17:01:26.460Z,87.06
2018-05-13T17:03:53.879Z,86.20
2018-05-13T17:06:21.289Z,86.75
2018-05-13T17:08:48.705Z,85.78
2018-05-13T17:11:16.109Z,85.49
2018-05-13T17:13:43.669Z,85.19
2018-05-13T17:16:11.076Z,85.86
2018-05-13T17:18:38.483Z,86.19
2018-05-13T17:21:06.227Z,87.19
2018-05-13T17:23:33.639Z,86.83
2018-05-13T17:26:01.036Z,86.47
2018-05-13T17:28:28.468Z,85.83
2018-05-13T17:30:55.871Z,85.83
2018-05-13T17:33:23.295Z,85.65
2018-05-13T17:35:50.728Z,85.14
2018-05-13T17:38:18.143Z,84.74
2018-05-13T17:40:45.572Z,83.94
2018-05-13T17:43:12.984Z,83.97
2018-05-13T17:45:40.399Z,83.70
2018-05-13T17:48:07.821Z,84.39
2018-05-13T17:50:35.228Z,84.38
2018-05-13T17:53:02.647Z,84.41
2018-05-13T17:55:30.048Z,85.09
2018-05-13T17:57:57.457Z,83.67
2018-05-13T18:00:24.872Z,83.24
2018-05-13T18:02:52.271Z,83.91
2018-05-13T18:05:20.378Z,84.68
2018-05-13T18:07:47.788Z,86.32
2018-05-13T18:10:15.205Z,85.48
2018-05-13T18:12:42.612Z,85.60
2018-05-13T18:15:10.072Z,86.58
2018-05-13T18:17:37.743Z,86.46
2018-05-13T18:20:05.143Z,85.20
2018-05-13T18:22:32.547Z,84.77
2018-05-13T18:24:59.969Z,85.10
2018-05-13T18:27:27.392Z,86.09
2018-05-13T18:29:54.811Z,84.71
2018-05-13T18:32:22.224Z,84.23
2018-05-13T18:34:49.644Z,85.86
2018-05-13T18:37:17.171Z,86.70
2018-05-13T18:39:44.610Z,87.97
2018-05-13T18:42:12.019Z,87.83
2018-05-13T18:44:39.459Z,87.88
2018-05-13T18:47:06.864Z,87.80
2018-05-13T18:49:34.280Z,87.34
2018-05-13T18:52:01.699Z,87.89
2018-05-13T18:54:29.189Z,89.05
2018-05-13T18:56:56.521Z,88.74
2018-05-13T18:59:23.920Z,88.38
2018-05-13T19:01:51.335Z,88.87
2018-05-13T19:04:18.757Z,88.84
2018-05-13T19:06:46.160Z,88.43
2018-05-13T19:09:13.564Z,88.51
2018-05-13T19:11:40.995Z,87.85
2018-05-13T19:14:08.626Z,88.27
2018-05-13T19:16:36.373Z,88.25
2018-05-13T19:19:03.868Z,88.53
2018-05-13T19:21:31.231Z,88.01
2018-05-13T19:23:58.677Z,87.63
2018-05-13T19:26:26.093Z,87.69
2018-05-13T19:28:53.499Z,87.78
2018-05-13T19:31:20.920Z,87.01
2018-05-13T19:33:48.350Z,87.02
2018-05-13T19:36:15.841Z,88.22
2018-05-13T19:38:43.326Z,89.20
2018-05-13T19:41:11.016Z,89.44
2018-05-13T19:43:38.430Z,88.64
2018-05-13T19:46:05.833Z,88.59
2018-05-13T19:48:34.881Z,89.44
2018-05-13T19:51:03.260Z,89.54
2018-05-13T19:53:31.031Z,89.31
2018-05-13T19:55:58.449Z,89.05
2018-05-13T19:58:25.872Z,88.69
2018-05-13T20:00:53.440Z,88.75
2018-05-13T20:03:21.042Z,88.71
2018-05-13T20:05:48.251Z,88.97
2018-05-13T20:08:15.676Z,88.53
2018-05-13T20:10:43.088Z,88.24
2018-05-13T20:13:10.824Z,88.27
2018-05-13T20:15:38.288Z,88.12
2018-05-13T20:18:05.923Z,88.21
2018-05-13T20:20:35.986Z,88.16
2018-05-13T20:23:15.106Z,88.31
2018-05-13T20:25:42.547Z,87.85
2018-05-13T20:28:09.996Z,87.98
2018-05-13T20:30:37.641Z,87.81
2018-05-13T20:33:05.971Z,88.00
2018-05-13T20:35:33.396Z,88.04
2018-05-13T20:38:00.828Z,88.29
2018-05-13T20:40:28.233Z,88.29
2018-05-13T20:42:56.055Z,88.26
2018-05-13T20:45:23.474Z,87.93
2018-05-13T20:47:51.096Z,87.73
2018-05-13T20:50:18.532Z,87.95
2018-05-13T20:52:45.973Z,87.81
2018-05-13T20:55:13.408Z,87.54
2018-05-13T20:57:40.906Z,87.86
2018-05-13T21:00:08.555Z,87.77
2018-05-13T21:02:36.296Z,87.31
2018-05-13T21:05:03.732Z,87.30
2018-05-13T21:07:31.169Z,87.17
2018-05-13T21:09:58.569Z,86.96
2018-05-13T21:12:25.973Z,87.07
2018-05-13T21:14:53.404Z,87.08
2018-05-13T21:17:20.838Z,87.04
2018-05-13T21:19:48.242Z,87.11
2018-05-13T21:22:15.668Z,87.27
2018-05-13T21:24:43.171Z,87.29
2018-05-13T21:27:10.600Z,87.48
2018-05-13T21:29:38.028Z,87.37
2018-05-13T21:32:05.451Z,86.90
2018-05-13T21:34:33.091Z,86.85
2018-05-13T21:37:00.547Z,86.73
2018-05-13T21:39:27.960Z,86.80
2018-05-13T21:41:55.760Z,86.88
2018-05-13T21:44:23.183Z,87.13
2018-05-13T21:46:50.588Z,87.30
2018-05-13T21:49:18.021Z,87.51
2018-05-13T21:51:45.429Z,87.84
2018-05-13T21:54:12.887Z,87.78
2018-05-13T21:56:40.292Z,87.64
2018-05-13T21:59:07.700Z,87.31
2018-05-13T22:01:35.119Z,87.13
2018-05-13T22:04:02.527Z,87.12
2018-05-13T22:06:29.949Z,87.19
2018-05-13T22:08:57.364Z,86.96
2018-05-13T22:11:24.785Z,87.51
2018-05-13T22:13:52.204Z,87.07
2018-05-13T22:16:19.632Z,87.13
2018-05-13T22:18:47.092Z,87.09
2018-05-13T22:21:14.499Z,86.97
2018-05-13T22:23:41.928Z,87.04
2018-05-13T22:26:09.335Z,86.91
2018-05-13T22:28:37.072Z,86.97
2018-05-13T22:31:04.489Z,87.06
2018-05-13T22:33:31.904Z,87.12
2018-05-13T22:35:59.333Z,87.11
2018-05-13T22:38:26.756Z,87.23
2018-05-13T22:40:54.185Z,87.28
2018-05-13T22:43:21.600Z,87.06
2018-05-13T22:45:49.039Z,87.43
2018-05-13T22:48:16.453Z,87.62
2018-05-13T22:50:43.860Z,87.43
2018-05-13T22:53:11.374Z,87.04
2018-05-13T22:55:38.708Z,86.69
2018-05-13T22:58:06.116Z,86.82
2018-05-13T23:00:33.560Z,87.28
2018-05-13T23:03:01.374Z,87.22
2018-05-13T23:05:28.803Z,87.22
2018-05-13T23:07:56.199Z,87.11
2018-05-13T23:10:23.959Z,87.19
2018-05-13T23:12:51.380Z,86.87
2018-05-13T23:15:18.801Z,86.79
2018-05-13T23:17:46.238Z,86.80
2018-05-13T23:20:13.655Z,86.82
2018-05-13T23:22:41.080Z,86.72
2018-05-13T23:25:08.506Z,87.11
2018-05-13T23:27:35.925Z,87.51
2018-05-13T23:30:03.336Z,87.43
2018-05-13T23:32:30.769Z,87.42
2018-05-13T23:34:58.179Z,87.61
2018-05-13T23:37:25.588Z,87.34
2018-05-13T23:39:53.013Z,87.36
2018-05-13T23:42:20.425Z,87.51
2018-05-13T23:44:48.236Z,87.49
2018-05-13T23:47:15.726Z,87.51
2018-05-13T23:49:43.060Z,88.09
2018-05-13T23:52:10.485Z,88.09
2018-05-13T23:54:37.899Z,87.97
2018-05-13T23:57:05.680Z,87.99
2018-05-13T23:59:33.086Z,88.17
